Latest Weather Observations for Tuggeranong

IDN60901

Issued at 11:11 am EST Thursday 2 July 2015 (issued every 10 minutes, with the page automatically refreshed every 10 minutes)

About weather observations | Map of Canberra area stations | Latest observations for Canberra area | Other Formats
Station Details ID: 070339 Name: TUGGERANONG (ISABELLA PLAINS) AWS Lat: -35.42 Lon: 149.09 Height: 586.7 m
Data from the previous 72 hours. | See also: Recent months at Tuggeranong
Date/Time
EST
Tmp

°C
App
Tmp
°C
Dew
Point
°C
Rel
Hum
%
Delta-T

°C
Wind Press
QNH
hPa
Press
MSL
hPa
Rain
since
9 am
mm
Dir
 
Spd
km/h
Gust
km/h
Spd
kts
Gust
kts
02/11:00am 5.5 0.7 2.8 83 1.1 NNW 17 24 9 13 1019.4 1020.4 0.0
02/10:30am 6.5 2.0 2.4 75 1.7 NNW 15 24 8 13 1019.9 1021.0 0.0
02/10:00am 6.7 1.5 2.4 74 1.8 NNW 19 26 10 14 1019.8 1020.9 0.0
02/09:30am 7.0 4.6 4.1 82 1.3 NNW 6 19 3 10 1020.2 1021.3 0.0
02/09:00am 2.6 0.9 1.6 93 0.4 CALM 0 0 0 0 1020.6 1021.7 0.0
02/08:30am 1.0 -1.2 1.0 100 0.0 NW 2 7 1 4 1020.3 1021.4 0.0
02/08:00am -0.2 -2.6 -0.2 100 0.0 ENE 2 7 1 4 1020.2 1021.3 0.0
02/07:30am -1.2 -3.8 -1.5 98 0.1 NW 2 7 1 4 1020.3 1021.4 0.0
02/07:00am -1.0 -3.2 -1.3 98 0.1 CALM 0 7 0 4 1020.0 1021.1 0.0
02/06:30am -1.0 -3.2 -1.3 98 0.1 CALM 0 0 0 0 1020.1 1021.2 0.0
02/05:30am -0.6 -2.7 -1.0 97 0.1 CALM 0 0 0 0 1020.2 1021.3 0.0
02/05:00am -0.3 -2.3 -0.4 99 0.0 CALM 0 0 0 0 1020.5 1021.6 0.0
02/04:30am -0.6 -2.7 -0.9 98 0.1 CALM 0 0 0 0 1020.5 1021.6 0.0
02/04:00am -0.4 -2.5 -0.5 99 0.0 CALM 0 0 0 0 1020.8 1021.9 0.0
02/03:30am -0.8 -2.9 -1.1 98 0.1 CALM 0 0 0 0 1021.2 1022.3 0.0
02/03:00am -0.5 -2.6 -0.8 98 0.1 CALM 0 0 0 0 1021.3 1022.4 0.0
02/02:30am -0.7 -2.8 -0.8 99 0.0 CALM 0 0 0 0 1021.7 1022.8 0.0
02/02:00am -1.0 -3.2 -1.3 98 0.1 CALM 0 0 0 0 1021.9 1023.0 0.0
02/01:30am -1.0 -3.2 -1.3 98 0.1 CALM 0 0 0 0 1021.8 1022.9 0.0
02/01:00am -1.5 -3.7 -1.9 97 0.1 CALM 0 0 0 0 1022.0 1023.1 0.0
02/12:30am -1.3 -3.5 -1.7 97 0.1 CALM 0 0 0 0 1022.3 1023.5 0.0
 
Date/Time
EST
Tmp

°C
App
Tmp
°C
Dew
Point
°C
Rel
Hum
%
Delta-T

°C
Wind Press
QNH
hPa
Press
MSL
hPa
Rain
since
9 am
mm
Dir
 
Spd
km/h
Gust
km/h
Spd
kts
Gust
kts
01/11:30pm -1.1 -4.6 -1.7 96 0.2 SW 7 9 4 5 1022.7 1023.9 0.0
01/11:00pm -0.3 -3.7 -0.7 97 0.1 E 7 9 4 5 1022.3 1023.5 0.0
01/10:30pm -0.6 -3.6 -1.6 93 0.3 SE 4 11 2 6 1022.5 1023.7 0.0
01/10:00pm 0.0 -2.9 -1.0 93 0.4 E 4 7 2 4 1022.7 1023.9 0.0
01/09:30pm 0.6 -2.2 -0.7 91 0.5 E 4 7 2 4 1022.9 1024.0 0.0
01/09:00pm 1.5 -1.6 -0.1 89 0.6 ENE 6 7 3 4 1022.7 1023.9 0.0
01/08:30pm 2.4 -0.7 0.3 86 0.8 N 6 11 3 6 1022.7 1023.9 0.0
01/08:00pm 3.1 -0.9 0.7 84 0.9 E 11 13 6 7 1022.9 1024.0 0.0
01/07:30pm 3.8 1.2 0.8 81 1.2 N 4 7 2 4 1023.0 1024.1 0.0
01/07:00pm 4.4 1.4 1.1 79 1.3 NE 6 7 3 4 1023.0 1024.1 0.0
01/06:30pm 4.5 0.9 0.8 77 1.5 NE 9 9 5 5 1022.6 1023.8 0.0
01/05:30pm 6.4 3.3 1.5 71 2.0 N 7 11 4 6 1022.4 1023.6 0.0
01/05:00pm 7.1 4.0 1.4 67 2.4 N 7 11 4 6 1022.5 1023.7 0.0
01/04:30pm 8.1 4.3 1.7 64 2.7 N 11 19 6 10 1022.6 1023.8 0.0
01/04:00pm 9.0 5.3 2.1 62 3.0 NNW 11 19 6 10 1022.6 1023.8 0.0
01/03:30pm 9.5 5.3 1.7 58 3.4 N 13 19 7 10 1022.7 1023.9 0.0
01/03:00pm 9.6 5.3 1.0 55 3.6 NNW 13 20 7 11 1022.9 1024.0 0.0
01/02:30pm 9.3 4.7 1.5 58 3.3 NNW 15 19 8 10 1023.1 1024.2 0.0
01/02:00pm 9.1 4.5 1.3 58 3.3 N 15 20 8 11 1023.4 1024.5 0.0
01/01:30pm 9.7 6.3 2.1 59 3.3 NW 9 13 5 7 1024.0 1025.2 0.0
01/01:00pm 8.8 5.7 1.2 59 3.2 NNW 7 11 4 6 1024.4 1025.6 0.0
01/12:30pm 7.5 4.1 1.8 67 2.4 NNW 9 13 5 7 1025.2 1026.3 0.0
01/12:00pm 5.6 2.6 1.7 76 1.6 W 7 9 4 5 1025.9 1027.1 0.0
01/11:30am 3.6 1.3 2.7 94 0.4 W 4 9 2 5 1026.4 1027.6 0.0
01/11:00am 1.5 -0.6 1.5 100 0.0 NW 2 6 1 3 1027.2 1028.4 0.0
01/10:30am 0.4 -1.5 0.4 100 0.0 CALM 0 0 0 0 1027.5 1028.7 0.0
01/10:00am -0.2 -3.4 -0.2 100 0.0 SW 6 7 3 4 1027.4 1028.6 0.0
01/09:30am -0.5 -2.6 -0.6 99 0.0 CALM 0 0 0 0 1027.5 1028.4 0.0
01/09:00am -1.0 -3.5 -1.1 99 0.0 SSE 2 6 1 3 1027.4 1028.3 0.0
01/08:30am -1.4 -3.6 -1.5 99 0.0 CALM 0 0 0 0 1027.5 1028.4 0.0
01/08:00am -1.8 -4.0 -1.9 99 0.0 CALM 0 0 0 0 1027.4 1028.3 0.0
01/07:30am -1.7 -4.7 -1.8 99 0.0 ESE 4 7 2 4 1027.0 1027.9 0.0
01/07:00am -1.4 -4.0 -1.5 99 0.0 ENE 2 6 1 3 1026.7 1027.5 0.0
01/06:30am -1.1 -4.4 -1.2 99 0.0 NE 6 7 3 4 1026.3 1027.2 0.0
01/06:00am -1.0 -4.5 -1.1 99 0.0 ENE 7 9 4 5 1026.2 1027.1 0.0
01/05:30am -1.4 -4.0 -1.5 99 0.0 E 2 6 1 3 1026.1 1027.0 0.0
01/05:00am -1.8 -4.0 -1.9 99 0.0 CALM 0 0 0 0 1026.0 1026.9 0.0
01/04:30am -2.1 -4.4 -2.5 97 0.0 CALM 0 0 0 0 1026.1 1027.0 0.0
01/04:00am -2.0 -4.3 -2.4 97 0.0 CALM 0 0 0 0 1026.0 1026.9 0.0
01/03:30am -1.4 -4.0 -2.0 96 0.1 WNW 2 6 1 3 1026.0 1026.9 0.0
01/03:00am -0.8 -3.0 -1.2 97 0.1 CALM 0 0 0 0 1026.1 1027.0 0.0
01/02:30am 0.1 -1.9 -0.3 97 0.2 CALM 0 0 0 0 1026.3 1027.2 0.0
01/02:00am 0.3 -1.7 -0.1 97 0.1 CALM 0 0 0 0 1026.6 1027.4 0.0
01/01:30am 0.8 -1.1 0.7 99 0.0 CALM 0 6 0 3 1026.7 1027.5 0.0
01/01:00am 0.2 -1.8 0.1 99 0.0 CALM 0 0 0 0 1026.8 1027.7 0.0
01/12:30am -0.2 -2.3 -0.5 98 0.1 CALM 0 0 0 0 1026.9 1027.8 0.0
01/12:00am -0.1 -2.9 -0.4 98 0.1 SSW 4 7 2 4 1027.0 1027.9 0.0
 
Date/Time
EST
Tmp

°C
App
Tmp
°C
Dew
Point
°C
Rel
Hum
%
Delta-T

°C
Wind Press
QNH
hPa
Press
MSL
hPa
Rain
since
9 am
mm
Dir
 
Spd
km/h
Gust
km/h
Spd
kts
Gust
kts
30/11:30pm -0.1 -2.1 -0.4 98 0.1 CALM 0 6 0 3 1027.1 1028.0 0.0
30/11:00pm -0.1 -3.5 -0.4 98 0.1 ENE 7 9 4 5 1027.1 1028.0 0.0
30/10:30pm -0.3 -3.7 -0.7 97 0.1 E 7 9 4 5 1027.1 1028.0 0.0
30/10:00pm 0.2 -3.2 -0.4 96 0.2 ENE 7 9 4 5 1027.3 1028.2 0.0
30/09:30pm 0.4 -2.4 -0.6 93 0.4 E 4 7 2 4 1027.2 1028.1 0.0
30/09:00pm 1.3 -1.0 0.3 93 0.4 NNE 2 6 1 3 1027.1 1028.0 0.0
30/08:30pm 2.1 -1.5 0.9 92 0.5 ESE 9 13 5 7 1026.9 1027.8 0.0
30/08:00pm 2.7 -0.5 0.9 88 0.7 ENE 7 9 4 5 1026.9 1027.8 0.0
30/07:30pm 3.4 0.0 1.6 88 0.7 NE 9 13 5 7 1026.7 1027.5 0.0
30/07:00pm 4.2 0.5 2.2 87 0.8 NNE 11 15 6 8 1026.7 1027.5 0.0
30/06:30pm 4.5 1.6 2.4 86 0.9 NNE 7 11 4 6 1026.4 1027.3 0.0
30/06:00pm 5.1 1.1 2.8 85 1.0 N 13 22 7 12 1026.0 1026.9 0.0
30/05:30pm 5.4 1.4 2.6 82 1.2 N 13 20 7 11 1025.7 1026.6 0.0
30/05:00pm 6.2 2.5 2.5 77 1.6 NNW 11 19 6 10 1025.5 1026.4 0.0
30/04:30pm 7.3 3.3 2.8 73 2.0 NNW 13 20 7 11 1025.2 1026.0 0.0
30/04:00pm 8.1 3.8 3.2 71 2.1 NNW 15 24 8 13 1025.2 1026.0 0.0
30/03:30pm 7.8 3.1 3.1 72 2.1 N 17 26 9 14 1025.1 1025.9 0.0
30/03:00pm 8.5 3.8 3.4 70 2.3 N 17 26 9 14 1025.0 1025.8 0.0
30/02:30pm 9.3 4.1 3.3 66 2.7 N 20 30 11 16 1025.1 1025.9 0.0
30/02:00pm 9.2 4.0 3.6 68 2.5 N 20 30 11 16 1025.2 1026.0 0.0
30/01:30pm 10.5 6.2 3.5 62 3.2 NNW 15 24 8 13 1025.5 1026.4 0.0
30/01:00pm 10.4 5.9 4.3 66 2.8 NNW 17 22 9 12 1025.8 1026.7 0.0
30/12:30pm 9.3 5.2 4.3 71 2.3 N 15 24 8 13 1026.3 1027.2 0.0
30/12:00pm 9.0 5.4 5.0 76 1.8 NW 13 17 7 9 1027.0 1027.9 0.0
30/11:30am 7.7 4.8 4.7 81 1.4 N 9 15 5 8 1027.6 1028.5 0.0
30/11:00am 6.6 3.5 3.8 82 1.2 NNW 9 13 5 7 1028.1 1029.1 0.0
30/10:30am 6.0 2.8 3.3 83 1.2 N 9 15 5 8 1028.7 1029.6 0.0
30/10:00am 5.1 3.0 3.8 91 0.6 N 4 7 2 4 1028.6 1029.5 0.0
30/09:30am 4.8 3.1 4.1 95 0.3 WSW 2 7 1 4 1028.8 1029.7 0.0
30/09:00am 4.1 1.5 3.1 93 0.4 WSW 6 7 3 4 1028.8 1029.7 0.0
30/08:30am 3.7 2.1 2.2 90 0.6 CALM 0 2 0 1 1028.9 1029.8 0.0
30/08:00am 3.3 1.6 2.0 91 0.5 CALM 0 0 0 0 1028.9 1029.8 0.0
30/07:30am 3.1 1.4 1.9 92 0.5 CALM 0 0 0 0 1028.7 1029.6 0.0
30/07:00am 3.0 1.3 1.8 92 0.5 CALM 0 0 0 0 1028.6 1029.5 0.0
30/06:30am 2.9 1.2 1.7 92 0.5 CALM 0 0 0 0 1028.5 1029.4 0.0
30/06:00am 2.7 1.0 1.7 93 0.4 CALM 0 2 0 1 1028.7 1029.6 0.0
30/05:30am 2.7 1.0 1.8 94 0.4 CALM 0 0 0 0 1028.4 1029.3 0.0
30/05:00am 2.4 0.7 1.8 96 0.2 CALM 0 0 0 0 1028.4 1029.3 0.0
30/04:30am 2.2 0.5 1.8 97 0.2 CALM 0 0 0 0 1028.2 1029.2 0.0
30/04:00am 1.9 0.1 1.5 97 0.2 CALM 0 0 0 0 1028.4 1029.3 0.0
30/03:30am 1.9 0.2 1.6 98 0.1 CALM 0 0 0 0 1028.2 1029.2 0.0
30/03:00am 1.9 0.2 1.8 99 0.0 CALM 0 0 0 0 1028.5 1029.4 0.0
30/02:30am 1.4 -0.4 1.3 99 0.0 CALM 0 0 0 0 1028.7 1029.6 0.0
30/02:00am 0.2 -1.8 0.1 99 0.0 CALM 0 0 0 0 1028.8 1029.7 0.0
30/01:30am -0.2 -3.4 -0.3 99 0.0 NE 6 7 3 4 1028.7 1029.6 0.0
30/01:00am -1.1 -3.3 -1.5 97 0.1 CALM 0 0 0 0 1028.8 1029.7 0.0
30/12:30am -1.1 -3.3 -1.5 97 0.1 CALM 0 0 0 0 1028.9 1029.8 0.0
30/12:00am -1.2 -3.4 -1.9 95 0.2 CALM 0 0 0 0 1029.2 1030.1 0.0
 
Date/Time
EST
Tmp

°C
App
Tmp
°C
Dew
Point
°C
Rel
Hum
%
Delta-T

°C
Wind Press
QNH
hPa
Press
MSL
hPa
Rain
since
9 am
mm
Dir
 
Spd
km/h
Gust
km/h
Spd
kts
Gust
kts
29/11:30pm -0.9 -3.1 -1.7 94 0.2 CALM 0 0 0 0 1029.6 1030.6 0.0
29/11:00pm 0.0 -2.4 -0.6 96 0.2 E 2 7 1 4 1029.9 1030.9 0.0
29/10:30pm 0.0 -2.1 -0.6 96 0.2 CALM 0 0 0 0 1030.2 1031.1 0.0
29/10:00pm 0.0 -2.1 -0.7 95 0.3 CALM 0 0 0 0 1030.3 1031.2 0.0
29/09:30pm 0.2 -1.9 -0.9 92 0.4 CALM 0 0 0 0 1030.5 1031.4 0.0
29/09:00pm 1.2 -0.8 0.0 92 0.5 CALM 0 0 0 0 1030.6 1031.5 0.0
29/08:30pm 1.8 -0.1 0.5 91 0.5 CALM 0 0 0 0 1030.6 1031.5 0.0
29/08:00pm 2.3 0.4 0.5 88 0.7 CALM 0 0 0 0 1030.6 1031.5 0.0
29/07:30pm 3.6 1.4 1.3 85 0.9 E 2 6 1 3 1030.5 1031.4 0.0
29/07:00pm 4.5 1.7 2.0 84 1.0 E 6 7 3 4 1030.3 1031.2 0.0
29/06:30pm 5.5 2.6 2.7 82 1.2 ENE 7 9 4 5 1030.2 1031.1 0.0
29/06:00pm 6.3 3.7 3.1 80 1.4 ENE 6 7 3 4 1029.9 1030.9 0.0
29/05:30pm 7.6 5.2 2.3 69 2.3 ENE 4 6 2 3 1029.6 1030.6 0.0
29/05:00pm 10.3 8.6 1.9 56 3.6 CALM 0 0 0 0 1029.4 1030.3 0.0
29/04:30pm 12.7 10.0 2.6 50 4.6 NNW 6 7 3 4 1029.5 1030.4 0.0
29/04:00pm 13.3 10.4 2.5 48 4.9 NNW 7 11 4 6 1029.4 1030.3 0.0
29/03:30pm 13.5 9.9 0.9 42 5.5 NNW 9 13 5 7 1029.5 1030.4 0.0
29/03:00pm 13.9 11.1 3.1 48 5.0 NNW 7 11 4 6 1029.4 1030.3 0.0
29/02:30pm 13.8 10.7 3.6 50 4.8 N 9 15 5 8 1029.4 1030.3 0.0
29/02:00pm 13.7 11.2 3.5 50 4.7 NNW 6 9 3 5 1029.7 1030.7 0.0
29/01:30pm 13.7 12.0 3.8 51 4.6 N 2 6 1 3 1029.8 1030.8 0.0
29/01:00pm 12.8 10.4 4.3 56 4.0 SE 6 13 3 7 1030.3 1031.2 0.0
29/12:30pm 12.2 9.8 4.2 58 3.7 WSW 6 11 3 6 1030.9 1031.8 0.0
29/12:00pm 11.9 9.2 3.9 58 3.7 WSW 7 13 4 7 1031.4 1032.4 0.0
29/11:30am 11.3 8.7 4.3 62 3.3 WSW 7 11 4 6 1032.1 1033.0 0.0

Latest Capital City Observations: Canberra | Sydney | Melbourne | Brisbane | Adelaide | Perth | Hobart | Darwin

Other Formats:

Comma delimited format used in spreadsheet applications
http://www.bom.gov.au/fwo/IDN60903/IDN60903.94925.axf

JavaScript Object Notation format (JSON) in row-major order
http://www.bom.gov.au/fwo/IDN60903/IDN60903.94925.json